Time;durP1;ratioP1;P1;durP2;ratioP2;P2;SDS_P1;SDS_P2;PMS_P1;PMS_P2;Temp;Humidity;BMP_temperature;BMP_pressure;BME280_temperature;BME280_humidity;BME280_pressure;Samples;Min_cycle;Max_cycle;Signal;HPM_P1;HPM_P2
2022/05/30 00:00:47;;;;;;;11.32;1.55;;;10.40;99.90;;;;;;4828630;29;20185;-83
2022/05/30 00:03:13;;;;;;;13.23;1.75;;;10.40;99.90;;;;;;4827446;29;20630;-84
2022/05/30 00:05:47;;;;;;;8.05;1.95;;;10.30;99.90;;;;;;4828459;29;20185;-84
2022/05/30 00:08:17;;;;;;;7.63;1.43;;;10.30;99.90;;;;;;4827527;29;20170;-83
2022/05/30 00:10:44;;;;;;;10.23;1.33;;;10.30;99.90;;;;;;4826046;29;20198;-82
2022/05/30 00:13:11;;;;;;;6.65;1.30;;;10.30;99.90;;;;;;4809326;29;20314;-83
2022/05/30 00:15:38;;;;;;;5.53;1.58;;;10.30;99.90;;;;;;4809073;29;20191;-83
2022/05/30 00:18:04;;;;;;;4.47;1.08;;;10.30;99.90;;;;;;4809096;29;20212;-83
2022/05/30 00:20:29;;;;;;;10.45;2.25;;;10.30;99.90;;;;;;4810017;29;20175;-83
2022/05/30 00:22:55;;;;;;;9.25;1.42;;;10.30;99.90;;;;;;4809963;29;20197;-84
2022/05/30 00:25:21;;;;;;;7.38;1.50;;;10.30;99.90;;;;;;4809422;29;20175;-83
2022/05/30 00:27:48;;;;;;;8.88;1.40;;;10.30;99.90;;;;;;4809205;29;20225;-83
2022/05/30 00:30:15;;;;;;;10.05;1.48;;;10.40;99.90;;;;;;4808843;29;20251;-83
2022/05/30 00:32:41;;;;;;;7.07;1.65;;;10.30;99.90;;;;;;4808894;29;20219;-84
2022/05/30 00:35:08;;;;;;;8.73;1.60;;;10.30;99.90;;;;;;4808825;29;20389;-83
2022/05/30 00:37:33;;;;;;;9.45;1.38;;;10.40;99.90;;;;;;4807855;29;20182;-83
2022/05/30 00:39:59;;;;;;;10.45;1.38;;;10.40;99.90;;;;;;4822559;29;20204;-84
2022/05/30 00:42:27;;;;;;;7.43;1.60;;;10.40;99.90;;;;;;4813240;29;20190;-83
2022/05/30 00:44:54;;;;;;;6.53;1.63;;;10.40;99.90;;;;;;4808610;29;20631;-83
2022/05/30 00:47:21;;;;;;;7.00;1.30;;;10.30;99.90;;;;;;4808783;29;20197;-83
2022/05/30 00:49:48;;;;;;;9.98;1.35;;;10.40;99.90;;;;;;4808610;29;20187;-83
2022/05/30 00:52:25;;;;;;;7.20;1.52;;;10.40;99.90;;;;;;4809132;29;20234;-83
2022/05/30 00:54:59;;;;;;;5.22;0.98;;;10.40;99.90;;;;;;4808266;29;20198;-83
2022/05/30 00:57:27;;;;;;;6.93;1.45;;;10.30;99.90;;;;;;4809835;29;20171;-84
2022/05/30 00:59:55;;;;;;;7.60;1.70;;;10.30;99.90;;;;;;4808730;29;20638;-84
2022/05/30 01:02:26;;;;;;;5.30;1.80;;;10.30;99.90;;;;;;4809627;29;20183;-84
2022/05/30 01:07:38;;;;;;;11.35;1.70;;;10.20;99.90;;;;;;4809646;29;20231;-83
2022/05/30 01:10:06;;;;;;;10.90;1.55;;;10.20;99.90;;;;;;4821375;29;20218;-84
2022/05/30 01:12:44;;;;;;;10.02;1.65;;;10.20;99.90;;;;;;4827379;29;20265;-83
2022/05/30 01:15:15;;;;;;;10.20;1.45;;;10.20;99.90;;;;;;4825995;29;20193;-83
2022/05/30 01:18:10;;;;;;;7.63;1.67;;;10.20;99.90;;;;;;4826463;29;20185;-83
2022/05/30 01:20:41;;;;;;;7.00;1.40;;;10.20;99.90;;;;;;4827546;29;20517;-84
2022/05/30 01:23:32;;;;;;;6.10;1.15;;;10.20;99.90;;;;;;4827059;29;20257;-83
2022/05/30 01:26:26;;;;;;;7.65;1.60;;;10.20;99.90;;;;;;4827152;29;20178;-84
2022/05/30 01:29:17;;;;;;;12.82;1.55;;;10.10;99.90;;;;;;4826201;29;20269;-83
2022/05/30 01:31:44;;;;;;;5.15;1.40;;;10.20;99.90;;;;;;4827328;29;20170;-84
2022/05/30 01:34:10;;;;;;;5.28;1.65;;;10.10;99.90;;;;;;4827078;29;20239;-82
2022/05/30 01:36:37;;;;;;;5.78;1.13;;;10.10;99.90;;;;;;4826068;29;20186;-84
2022/05/30 01:39:04;;;;;;;8.13;1.60;;;10.20;99.90;;;;;;4827272;29;20277;-84
2022/05/30 01:41:29;;;;;;;6.10;1.23;;;10.20;99.90;;;;;;4825888;29;20182;-84
2022/05/30 01:43:55;;;;;;;9.95;1.77;;;10.10;99.90;;;;;;4825670;29;20193;-83
2022/05/30 01:46:23;;;;;;;6.78;1.23;;;10.10;99.90;;;;;;4825904;29;20317;-84
2022/05/30 01:48:50;;;;;;;10.20;1.50;;;10.10;99.90;;;;;;4826803;29;20182;-84
2022/05/30 01:51:17;;;;;;;6.80;1.75;;;10.10;99.90;;;;;;4827095;29;20230;-83
2022/05/30 01:53:43;;;;;;;9.40;1.67;;;10.10;99.90;;;;;;4825777;29;20244;-83
2022/05/30 01:56:09;;;;;;;6.67;1.63;;;10.10;99.90;;;;;;4817293;29;20218;-84
2022/05/30 02:01:24;;;;;;;5.47;1.40;;;10.10;99.90;;;;;;5044395;24;20254;-82
2022/05/30 02:03:52;;;;;;;7.75;1.50;;;10.10;99.90;;;;;;4803350;29;20222;-82
2022/05/30 02:06:23;;;;;;;7.47;1.53;;;10.10;99.90;;;;;;4826983;29;20190;-83
2022/05/30 02:08:49;;;;;;;6.57;1.63;;;10.10;99.90;;;;;;4815243;29;20232;-82
2022/05/30 02:11:17;;;;;;;9.45;1.10;;;10.00;99.90;;;;;;4805146;29;20207;-82
2022/05/30 02:13:43;;;;;;;8.38;1.35;;;10.10;99.90;;;;;;4794010;29;20219;-82
2022/05/30 02:18:59;;;;;;;7.40;1.58;;;10.10;99.90;;;;;;4790744;30;20211;-82
2022/05/30 02:21:31;;;;;;;7.80;1.43;;;10.10;99.90;;;;;;4789215;29;20623;-83
2022/05/30 02:23:58;;;;;;;8.53;1.33;;;10.00;99.90;;;;;;4789236;29;20183;-83
2022/05/30 02:26:24;;;;;;;7.90;1.43;;;9.90;99.90;;;;;;4790025;29;20198;-83
2022/05/30 02:28:50;;;;;;;9.43;1.83;;;9.90;99.90;;;;;;4790376;29;20184;-82
2022/05/30 02:31:17;;;;;;;5.33;1.30;;;9.90;99.90;;;;;;4788848;29;20228;-83
2022/05/30 02:36:39;;;;;;;5.68;1.60;;;9.90;99.90;;;;;;4790262;30;20182;-83
2022/05/30 02:39:06;;;;;;;5.60;1.38;;;9.90;99.90;;;;;;4802138;29;20185;-82
2022/05/30 02:41:32;;;;;;;5.28;1.48;;;9.90;99.90;;;;;;4826076;29;20182;-83
2022/05/30 02:43:58;;;;;;;5.47;1.30;;;9.80;99.90;;;;;;4825154;29;20504;-82
2022/05/30 02:46:24;;;;;;;8.93;1.50;;;9.80;99.90;;;;;;4824949;29;20197;-83
2022/05/30 02:48:50;;;;;;;8.23;1.67;;;9.80;99.90;;;;;;4825280;29;20239;-82
2022/05/30 02:51:16;;;;;;;10.67;1.83;;;9.80;99.90;;;;;;4825072;29;20190;-82
2022/05/30 02:53:41;;;;;;;6.10;1.57;;;9.70;99.90;;;;;;4824951;29;20566;-82
2022/05/30 02:56:10;;;;;;;7.05;1.25;;;9.70;99.90;;;;;;4825893;29;20188;-82
2022/05/30 02:58:35;;;;;;;4.53;1.53;;;9.70;99.90;;;;;;4825198;29;20186;-83
2022/05/30 03:01:01;;;;;;;7.87;1.57;;;9.80;99.90;;;;;;4824086;29;20765;-82
2022/05/30 03:03:27;;;;;;;7.45;1.63;;;9.70;99.90;;;;;;4826092;29;20606;-83
2022/05/30 03:05:54;;;;;;;6.93;1.40;;;9.70;99.90;;;;;;4824927;29;20293;-83
2022/05/30 03:08:20;;;;;;;10.85;1.60;;;9.70;99.90;;;;;;4824782;29;20190;-82
2022/05/30 03:10:46;;;;;;;5.80;1.25;;;9.70;99.90;;;;;;4824738;29;20197;-83
2022/05/30 03:13:16;;;;;;;8.03;1.53;;;9.70;99.90;;;;;;4824808;29;20313;-83
2022/05/30 03:15:42;;;;;;;5.03;1.23;;;9.80;99.90;;;;;;4824652;29;20626;-82
2022/05/30 03:18:08;;;;;;;8.20;1.30;;;9.80;99.90;;;;;;4824799;29;20194;-83
2022/05/30 03:20:34;;;;;;;11.07;1.50;;;9.70;99.90;;;;;;4824891;29;20189;-83
2022/05/30 03:23:01;;;;;;;5.43;1.10;;;9.80;99.90;;;;;;4824893;29;20645;-83
2022/05/30 03:25:27;;;;;;;4.57;1.58;;;9.80;99.90;;;;;;4824691;29;20193;-82
2022/05/30 03:27:53;;;;;;;9.32;1.58;;;9.70;99.90;;;;;;4824526;29;20194;-83
2022/05/30 03:30:22;;;;;;;7.37;1.50;;;9.70;99.90;;;;;;4824705;29;20190;-83
2022/05/30 03:32:49;;;;;;;6.22;1.73;;;9.70;99.90;;;;;;4824703;29;20221;-83
2022/05/30 03:35:16;;;;;;;4.93;1.43;;;9.70;99.90;;;;;;4824792;29;20570;-83
2022/05/30 03:37:43;;;;;;;8.15;2.15;;;9.60;99.90;;;;;;4825044;29;20190;-83
2022/05/30 03:40:11;;;;;;;7.30;1.37;;;9.60;99.90;;;;;;4824900;29;20342;-83
2022/05/30 03:42:37;;;;;;;4.70;1.30;;;9.60;99.90;;;;;;4824865;29;20197;-83
2022/05/30 03:45:04;;;;;;;6.93;1.57;;;9.60;99.90;;;;;;4825929;29;20170;-83
2022/05/30 03:47:44;;;;;;;6.10;1.45;;;9.60;99.90;;;;;;4825769;29;20274;-83
2022/05/30 03:50:13;;;;;;;11.07;1.50;;;9.60;99.90;;;;;;4824570;29;20254;-83
2022/05/30 03:52:39;;;;;;;9.33;1.63;;;9.70;99.90;;;;;;4824802;29;20182;-84
2022/05/30 03:55:08;;;;;;;4.87;1.17;;;9.70;99.90;;;;;;4824554;29;20186;-83
2022/05/30 03:57:34;;;;;;;7.37;1.63;;;9.70;99.90;;;;;;4824273;29;20526;-83
2022/05/30 03:59:59;;;;;;;6.87;1.87;;;9.80;99.90;;;;;;4824569;29;20333;-83
2022/05/30 04:02:25;;;;;;;6.00;1.50;;;9.80;99.90;;;;;;4825694;29;20186;-83
2022/05/30 04:04:51;;;;;;;8.32;2.22;;;9.80;99.90;;;;;;4825619;29;20186;-83
2022/05/30 04:07:17;;;;;;;5.87;1.73;;;9.70;99.90;;;;;;4825627;29;20186;-82
2022/05/30 04:09:43;;;;;;;8.43;1.42;;;9.70;99.90;;;;;;4824364;29;20243;-83
2022/05/30 04:12:09;;;;;;;6.80;1.38;;;9.70;99.90;;;;;;4825649;29;20280;-84
2022/05/30 04:14:35;;;;;;;8.77;2.30;;;9.70;99.90;;;;;;4828568;29;20246;-84
2022/05/30 04:17:00;;;;;;;8.03;1.90;;;9.70;99.90;;;;;;4827626;29;20187;-83
2022/05/30 04:19:26;;;;;;;6.68;1.50;;;9.80;99.90;;;;;;4827919;29;20532;-83
2022/05/30 04:21:52;;;;;;;7.13;1.53;;;9.70;99.90;;;;;;4828693;29;20186;-83
2022/05/30 04:24:20;;;;;;;4.80;1.00;;;9.80;99.90;;;;;;4828418;29;20221;-83
2022/05/30 04:26:45;;;;;;;5.93;1.50;;;9.80;99.90;;;;;;4828448;29;20238;-83
2022/05/30 04:29:11;;;;;;;10.43;1.40;;;9.80;99.90;;;;;;4827476;29;20190;-84
2022/05/30 04:31:37;;;;;;;7.93;1.50;;;9.80;99.90;;;;;;4827518;29;20285;-83
2022/05/30 04:34:03;;;;;;;6.90;1.70;;;9.80;99.90;;;;;;4827226;29;20229;-83
2022/05/30 04:36:28;;;;;;;5.67;1.27;;;9.80;99.90;;;;;;4827152;29;20210;-84
2022/05/30 04:38:54;;;;;;;7.03;1.55;;;9.80;99.90;;;;;;4828258;29;20186;-84
2022/05/30 04:41:19;;;;;;;7.90;1.58;;;9.90;99.90;;;;;;4826829;29;20215;-83
2022/05/30 04:43:45;;;;;;;7.03;1.80;;;9.90;99.90;;;;;;4822655;29;20186;-84
2022/05/30 04:46:19;;;;;;;5.93;1.50;;;9.90;99.90;;;;;;4828061;29;20174;-83
2022/05/30 04:48:46;;;;;;;7.57;1.67;;;10.00;99.90;;;;;;4828161;29;20169;-83
2022/05/30 04:51:11;;;;;;;4.30;1.37;;;10.00;99.90;;;;;;4828215;29;20209;-83
2022/05/30 04:53:40;;;;;;;6.75;1.33;;;9.90;99.90;;;;;;4826613;29;20657;-83
2022/05/30 04:56:06;;;;;;;6.78;1.25;;;10.00;99.90;;;;;;4826431;29;20566;-83
2022/05/30 04:58:34;;;;;;;5.85;1.30;;;10.00;99.90;;;;;;4826900;29;20186;-83
2022/05/30 05:01:04;;;;;;;16.38;2.00;;;10.00;99.90;;;;;;4826552;29;20241;-83
2022/05/30 05:03:34;;;;;;;6.53;1.73;;;10.00;99.90;;;;;;4826686;29;20205;-83
2022/05/30 05:06:11;;;;;;;4.73;1.50;;;10.00;99.90;;;;;;4826614;29;20182;-83
2022/05/30 05:09:23;;;;;;;8.05;1.67;;;10.10;99.90;;;;;;4826614;29;20182;-83
2022/05/30 05:11:48;;;;;;;7.32;1.50;;;10.10;99.90;;;;;;4827584;29;20269;-83
2022/05/30 05:14:16;;;;;;;9.73;2.05;;;10.10;99.90;;;;;;4826342;29;20316;-83
2022/05/30 05:16:42;;;;;;;8.70;1.80;;;10.10;99.90;;;;;;4826883;29;20296;-83
2022/05/30 05:19:09;;;;;;;11.73;1.80;;;10.20;99.90;;;;;;4827850;29;20251;-83
2022/05/30 05:21:38;;;;;;;11.73;1.80;;;10.10;99.90;;;;;;4826329;29;20277;-83
2022/05/30 05:24:06;;;;;;;11.57;1.55;;;10.10;99.90;;;;;;4810051;29;20193;-83
2022/05/30 05:26:32;;;;;;;6.80;1.40;;;10.20;99.90;;;;;;4808999;29;20190;-83
2022/05/30 05:28:58;;;;;;;7.15;1.35;;;10.30;99.90;;;;;;4809236;29;20194;-82
2022/05/30 05:31:25;;;;;;;9.52;1.90;;;10.30;99.90;;;;;;4807728;29;20262;-83
2022/05/30 05:33:53;;;;;;;14.23;1.88;;;10.20;99.90;;;;;;4810625;29;20221;-82
2022/05/30 05:36:21;;;;;;;6.72;1.70;;;10.10;99.90;;;;;;4805983;29;20183;-81
2022/05/30 05:38:47;;;;;;;12.07;1.95;;;10.20;99.90;;;;;;4808641;29;20178;-82
2022/05/30 05:41:12;;;;;;;9.55;1.75;;;10.20;99.90;;;;;;4808272;29;20189;-81
2022/05/30 05:43:39;;;;;;;8.77;1.50;;;10.20;99.90;;;;;;4823717;29;20201;-81
2022/05/30 05:46:11;;;;;;;5.85;1.60;;;10.20;99.90;;;;;;4825395;29;20185;-81
2022/05/30 05:48:37;;;;;;;7.40;1.60;;;10.20;99.90;;;;;;4824362;29;20292;-82
2022/05/30 05:51:04;;;;;;;3.95;1.63;;;10.20;99.90;;;;;;4807400;29;20285;-82
2022/05/30 05:53:30;;;;;;;8.20;1.50;;;10.30;99.90;;;;;;4807234;29;20275;-83
2022/05/30 05:55:56;;;;;;;13.23;2.10;;;10.30;99.90;;;;;;4808181;29;20202;-82
2022/05/30 05:58:21;;;;;;;9.40;1.50;;;10.30;99.90;;;;;;4807313;29;20232;-82
2022/05/30 06:00:47;;;;;;;7.60;1.43;;;10.30;99.90;;;;;;4807745;29;20564;-82
2022/05/30 06:03:13;;;;;;;6.78;1.55;;;10.30;99.90;;;;;;4808223;29;20573;-81
2022/05/30 06:05:41;;;;;;;7.45;1.92;;;10.30;99.90;;;;;;4806671;29;20266;-81
2022/05/30 06:08:10;;;;;;;8.55;1.70;;;10.30;99.90;;;;;;4808107;29;20243;-82
2022/05/30 06:11:05;;;;;;;8.38;1.55;;;10.30;99.90;;;;;;4808010;29;20225;-81
2022/05/30 06:13:22;;;;;;;7.43;1.67;;;10.30;99.90;;;;;;4807899;29;20529;-81
2022/05/30 06:15:48;;;;;;;5.93;1.60;;;10.30;99.90;;;;;;4806764;29;20186;-80
2022/05/30 06:18:13;;;;;;;8.07;1.42;;;10.40;99.90;;;;;;4806714;29;20680;-81
2022/05/30 06:20:41;;;;;;;7.25;1.58;;;10.30;99.90;;;;;;4806952;29;20218;-82
2022/05/30 06:23:07;;;;;;;12.85;1.77;;;10.30;99.90;;;;;;4806602;29;20224;-81
2022/05/30 06:25:32;;;;;;;7.83;1.60;;;10.40;99.90;;;;;;4806626;29;20195;-81
2022/05/30 06:27:58;;;;;;;5.30;1.55;;;10.40;99.90;;;;;;4807912;29;20178;-81
2022/05/30 06:30:23;;;;;;;6.40;1.63;;;10.40;99.90;;;;;;4806828;29;20614;-82
2022/05/30 06:32:49;;;;;;;3.88;1.40;;;10.50;99.90;;;;;;4806485;29;20194;-81
2022/05/30 06:35:15;;;;;;;7.05;1.30;;;10.50;99.90;;;;;;4805826;29;20242;-82
2022/05/30 06:37:40;;;;;;;4.15;1.05;;;10.60;99.90;;;;;;4823825;29;20190;-81
2022/05/30 06:40:07;;;;;;;6.68;1.60;;;10.60;99.90;;;;;;4826035;29;20193;-81
2022/05/30 06:42:32;;;;;;;7.00;1.52;;;10.70;99.90;;;;;;4824354;29;20618;-81
2022/05/30 06:44:59;;;;;;;8.55;1.58;;;10.70;99.90;;;;;;4825944;29;20189;-81
2022/05/30 06:47:25;;;;;;;6.95;1.27;;;10.70;99.90;;;;;;4824856;29;20637;-83
2022/05/30 06:49:51;;;;;;;7.95;1.52;;;10.70;99.90;;;;;;4826116;29;20190;-82
2022/05/30 06:52:16;;;;;;;6.93;1.75;;;10.80;99.90;;;;;;4818781;29;20216;-82
2022/05/30 06:54:42;;;;;;;5.90;1.63;;;10.90;99.90;;;;;;4806814;29;20215;-82
2022/05/30 06:59:53;;;;;;;6.30;1.45;;;11.00;99.90;;;;;;4805679;29;20237;-81
2022/05/30 07:02:18;;;;;;;8.20;1.38;;;11.00;99.90;;;;;;4806067;29;20190;-82
2022/05/30 07:04:44;;;;;;;10.00;1.60;;;11.00;99.90;;;;;;4805688;29;20191;-82
2022/05/30 07:07:10;;;;;;;6.03;1.40;;;11.00;99.90;;;;;;4814659;29;20186;-82
2022/05/30 07:09:38;;;;;;;6.95;1.50;;;11.00;99.90;;;;;;4805172;29;20235;-82
2022/05/30 07:12:05;;;;;;;6.35;1.52;;;11.10;99.90;;;;;;4811351;29;20193;-82
2022/05/30 07:14:32;;;;;;;4.88;1.40;;;11.00;99.90;;;;;;4811957;29;20243;-81
2022/05/30 07:16:58;;;;;;;9.38;1.60;;;11.10;99.90;;;;;;4805729;29;20179;-81
2022/05/30 07:19:23;;;;;;;8.93;1.40;;;11.10;99.90;;;;;;4805611;29;20198;-82
2022/05/30 07:21:49;;;;;;;6.55;1.42;;;11.20;99.90;;;;;;4805580;29;20187;-83
2022/05/30 07:24:15;;;;;;;4.32;1.33;;;11.20;99.90;;;;;;4805689;29;20186;-82
2022/05/30 07:26:41;;;;;;;6.57;1.42;;;11.20;99.90;;;;;;4805240;29;20179;-83
2022/05/30 07:29:08;;;;;;;8.65;1.23;;;11.20;99.90;;;;;;4806696;29;20179;-83
2022/05/30 07:31:34;;;;;;;6.63;1.35;;;11.20;99.90;;;;;;4812992;29;20187;-81
2022/05/30 07:33:59;;;;;;;8.43;1.25;;;11.10;99.90;;;;;;4806774;29;20274;-82
2022/05/30 07:36:28;;;;;;;5.35;1.33;;;11.10;99.90;;;;;;4806529;29;20202;-84
2022/05/30 07:38:54;;;;;;;8.15;1.60;;;11.10;99.90;;;;;;4804662;29;20190;-83
2022/05/30 07:41:22;;;;;;;7.03;1.50;;;11.10;99.90;;;;;;4805142;29;20189;-83
2022/05/30 07:43:48;;;;;;;7.72;1.77;;;11.20;99.90;;;;;;4820148;29;20190;-82
2022/05/30 07:46:16;;;;;;;6.18;1.20;;;11.30;99.90;;;;;;4823984;29;20238;-83
2022/05/30 07:48:43;;;;;;;5.10;1.23;;;11.40;99.90;;;;;;4810524;29;20195;-82
2022/05/30 07:51:10;;;;;;;5.88;1.20;;;11.50;99.90;;;;;;4809492;29;20190;-81
2022/05/30 07:53:39;;;;;;;9.88;1.30;;;11.40;99.90;;;;;;4809006;29;20605;-82
2022/05/30 07:56:10;;;;;;;10.50;1.33;;;11.40;99.90;;;;;;4809240;29;20436;-83
2022/05/30 07:58:39;;;;;;;5.45;1.70;;;11.50;99.90;;;;;;4810488;29;20171;-82
2022/05/30 08:01:05;;;;;;;4.60;1.33;;;11.60;99.90;;;;;;4810288;29;20310;-83
2022/05/30 08:03:32;;;;;;;8.32;1.52;;;11.60;99.90;;;;;;4827216;29;20529;-82
2022/05/30 08:06:05;;;;;;;8.00;1.65;;;11.60;99.90;;;;;;4821933;29;20213;-82
2022/05/30 08:08:31;;;;;;;5.53;1.20;;;11.60;99.90;;;;;;4809114;29;20235;-81
2022/05/30 08:10:57;;;;;;;3.67;1.27;;;11.80;99.90;;;;;;4828146;29;20182;-82
2022/05/30 08:13:23;;;;;;;3.95;1.10;;;11.70;99.90;;;;;;4826231;29;20242;-82
2022/05/30 08:15:50;;;;;;;6.78;1.25;;;11.70;99.90;;;;;;4825822;29;20189;-81
2022/05/30 08:18:17;;;;;;;12.68;1.50;;;11.60;99.90;;;;;;4809994;29;20182;-82
2022/05/30 08:20:44;;;;;;;5.00;1.38;;;11.70;99.90;;;;;;4811964;29;20219;-83
2022/05/30 08:23:09;;;;;;;5.25;1.27;;;11.70;99.90;;;;;;4816325;29;20190;-81
2022/05/30 08:25:38;;;;;;;5.95;1.40;;;11.60;99.90;;;;;;4809842;29;20186;-82
2022/05/30 08:28:04;;;;;;;5.25;1.30;;;11.60;99.90;;;;;;4808275;29;20179;-81
2022/05/30 08:30:29;;;;;;;7.88;1.40;;;11.70;99.90;;;;;;4808613;29;20189;-82
2022/05/30 08:32:55;;;;;;;7.75;1.60;;;11.60;99.90;;;;;;4808272;29;20195;-82
2022/05/30 08:35:22;;;;;;;10.50;1.35;;;11.50;99.90;;;;;;4807390;29;20578;-83
2022/05/30 08:37:48;;;;;;;3.35;0.90;;;11.50;99.90;;;;;;4808453;29;20662;-84
2022/05/30 08:43:19;;;;;;;5.13;1.00;;;11.60;99.90;;;;;;4827202;29;20185;-82
2022/05/30 08:45:46;;;;;;;8.93;1.30;;;11.50;99.90;;;;;;4823857;29;20220;-82
2022/05/30 08:48:15;;;;;;;5.57;1.27;;;11.60;99.90;;;;;;4826491;29;20190;-81
2022/05/30 08:50:44;;;;;;;7.80;1.10;;;11.60;99.90;;;;;;4826160;29;20186;-82
2022/05/30 08:53:35;;;;;;;6.10;1.20;;;11.70;99.90;;;;;;4826138;29;20259;-81
2022/05/30 08:56:12;;;;;;;3.72;1.13;;;11.70;99.90;;;;;;4825664;29;20520;-82
2022/05/30 08:58:44;;;;;;;4.03;1.10;;;11.90;99.90;;;;;;4815672;29;20194;-81
2022/05/30 09:01:14;;;;;;;6.97;1.08;;;11.90;99.90;;;;;;4807525;29;20231;-84
2022/05/30 09:04:06;;;;;;;4.72;1.27;;;12.00;99.90;;;;;;4813749;29;20186;-82
2022/05/30 09:06:34;;;;;;;4.15;1.00;;;12.00;99.90;;;;;;4825819;29;20190;-84
2022/05/30 09:09:07;;;;;;;6.63;1.50;;;12.10;99.90;;;;;;4824863;29;20178;-83
2022/05/30 09:11:51;;;;;;;4.57;1.35;;;12.10;99.90;;;;;;4827144;29;20182;-83
2022/05/30 09:14:32;;;;;;;5.68;1.27;;;12.10;99.90;;;;;;4825408;29;20286;-84
2022/05/30 09:17:01;;;;;;;4.75;1.33;;;12.10;99.90;;;;;;4827562;29;20174;-83
2022/05/30 09:19:27;;;;;;;7.15;1.15;;;12.20;99.90;;;;;;4837319;24;20281;-91
2022/05/30 09:22:01;;;;;;;4.30;1.08;;;12.30;99.90;;;;;;4788567;29;20191;-90
2022/05/30 09:24:30;;;;;;;5.40;1.20;;;12.40;99.90;;;;;;4795865;29;20187;-90
2022/05/30 09:26:57;;;;;;;4.63;1.35;;;12.50;99.90;;;;;;4801150;29;20200;-90
2022/05/30 09:29:34;;;;;;;2.92;1.17;;;12.60;99.90;;;;;;4788878;29;20191;-90
2022/05/30 09:32:30;;;;;;;5.65;1.23;;;12.80;99.90;;;;;;4797997;29;20186;-91
2022/05/30 09:34:55;;;;;;;6.28;1.48;;;12.90;99.90;;;;;;4806935;29;20218;-91
2022/05/30 09:37:33;;;;;;;5.75;1.10;;;12.90;99.90;;;;;;4805302;29;20647;-90
2022/05/30 09:39:59;;;;;;;3.60;1.35;;;13.00;99.90;;;;;;4796239;29;20187;-90
2022/05/30 09:42:29;;;;;;;8.50;1.70;;;12.90;99.90;;;;;;4788201;30;20208;-90
2022/05/30 09:45:11;;;;;;;4.60;0.98;;;12.90;99.90;;;;;;4788811;30;20230;-90
2022/05/30 09:48:00;;;;;;;4.03;1.00;;;12.90;99.90;;;;;;4787684;29;20194;-90
2022/05/30 09:50:26;;;;;;;2.58;0.93;;;12.90;99.90;;;;;;4788064;29;20219;-91
2022/05/30 09:52:52;;;;;;;3.90;1.20;;;12.90;99.90;;;;;;4787802;29;20280;-90
2022/05/30 09:55:24;;;;;;;4.90;1.33;;;12.90;99.90;;;;;;4784841;29;20203;-91
2022/05/30 09:57:50;;;;;;;2.78;1.10;;;12.90;99.90;;;;;;4787987;29;20205;-90
2022/05/30 10:00:32;;;;;;;5.55;1.30;;;12.90;99.90;;;;;;4787949;29;20187;-90
2022/05/30 10:03:13;;;;;;;4.13;1.40;;;12.90;99.90;;;;;;4786442;30;20570;-90
2022/05/30 10:05:39;;;;;;;3.10;1.02;;;13.00;99.90;;;;;;4786819;29;20269;-90
2022/05/30 10:08:27;;;;;;;4.78;1.15;;;13.00;99.90;;;;;;4791381;29;20269;-90
2022/05/30 10:10:56;;;;;;;6.13;1.40;;;13.00;99.90;;;;;;4805239;29;20175;-90
2022/05/30 10:13:40;;;;;;;2.63;1.15;;;13.00;99.90;;;;;;4805533;29;20273;-90
2022/05/30 10:16:09;;;;;;;4.93;1.20;;;13.00;99.90;;;;;;4805149;29;20198;-92
2022/05/30 10:18:57;;;;;;;4.45;1.20;;;13.00;99.90;;;;;;4806053;29;20178;-90
2022/05/30 10:30:30;;;;;;;2.30;0.90;;;12.90;99.90;;;;;;4790044;30;20191;-91
2022/05/30 10:33:14;;;;;;;2.65;0.90;;;12.90;99.90;;;;;;4779253;29;20199;-90
2022/05/30 10:36:18;;;;;;;2.35;0.93;;;12.90;99.90;;;;;;4783115;29;20223;-90
2022/05/30 10:39:05;;;;;;;3.00;1.00;;;12.80;99.90;;;;;;4788005;30;20198;-91
2022/05/30 10:41:47;;;;;;;7.90;0.90;;;12.80;99.90;;;;;;4802560;29;20679;-91
2022/05/30 10:44:38;;;;;;;4.65;0.85;;;12.80;99.90;;;;;;4803363;29;20186;-90
2022/05/30 10:47:12;;;;;;;1.58;0.77;;;12.90;99.90;;;;;;4788172;29;20183;-90
2022/05/30 10:49:45;;;;;;;2.63;1.00;;;13.00;99.90;;;;;;4788034;29;20187;-90
2022/05/30 10:52:47;;;;;;;4.53;1.17;;;13.10;99.90;;;;;;4787662;29;20187;-92
2022/05/30 10:55:24;;;;;;;6.35;1.27;;;13.20;99.90;;;;;;4787619;29;20695;-90
2022/05/30 10:58:02;;;;;;;4.57;1.25;;;13.30;99.90;;;;;;4794576;29;20667;-91
2022/05/30 11:00:41;;;;;;;4.18;1.60;;;13.50;99.90;;;;;;4805967;29;20420;-91
2022/05/30 11:03:43;;;;;;;4.40;1.20;;;13.60;99.90;;;;;;4805362;29;20186;-91
2022/05/30 11:06:23;;;;;;;6.13;1.30;;;13.80;99.90;;;;;;4805493;29;20216;-90
2022/05/30 11:09:08;;;;;;;3.15;1.10;;;13.90;99.90;;;;;;4802676;29;20195;-90
2022/05/30 11:12:08;;;;;;;3.38;1.50;;;13.90;99.90;;;;;;4788536;30;20262;-91
2022/05/30 11:15:03;;;;;;;2.78;1.15;;;14.10;99.90;;;;;;4785574;29;20246;-91
2022/05/30 11:17:38;;;;;;;4.72;1.38;;;14.20;99.90;;;;;;4787974;30;20187;-91
2022/05/30 11:20:14;;;;;;;3.13;1.20;;;14.20;99.90;;;;;;4786438;29;20692;-90
2022/05/30 11:22:46;;;;;;;3.13;1.02;;;14.30;99.90;;;;;;4792275;29;20324;-90
2022/05/30 11:25:40;;;;;;;4.82;1.45;;;14.20;99.90;;;;;;4793297;29;20210;-91
2022/05/30 11:28:40;;;;;;;4.78;1.30;;;14.30;99.90;;;;;;4792692;30;20191;-90
2022/05/30 11:31:16;;;;;;;5.93;1.58;;;14.30;99.90;;;;;;4793547;29;20232;-90
2022/05/30 11:33:52;;;;;;;3.75;1.27;;;14.40;99.90;;;;;;4793108;29;20264;-91
2022/05/30 11:36:45;;;;;;;5.60;1.55;;;14.40;99.90;;;;;;4792773;29;20313;-90
2022/05/30 11:39:40;;;;;;;5.90;1.85;;;14.60;99.90;;;;;;4789585;30;20183;-91
2022/05/30 11:42:21;;;;;;;4.75;1.10;;;14.70;99.90;;;;;;4791818;29;20167;-91
2022/05/30 11:44:51;;;;;;;2.60;1.00;;;14.90;99.90;;;;;;4792672;30;20211;-90
2022/05/30 11:47:31;;;;;;;4.25;1.35;;;14.90;99.90;;;;;;4793361;30;20190;-91
2022/05/30 11:50:49;;;;;;;8.25;1.30;;;14.80;99.90;;;;;;4793462;29;20535;-91
2022/05/30 11:53:36;;;;;;;7.03;1.73;;;14.90;99.90;;;;;;4793429;30;20263;-90
2022/05/30 11:56:31;;;;;;;7.50;1.50;;;15.10;99.90;;;;;;4793447;30;20206;-91
2022/05/30 11:59:12;;;;;;;4.40;1.35;;;15.40;99.90;;;;;;4795700;29;20675;-91
2022/05/30 12:01:43;;;;;;;5.18;1.40;;;15.40;99.80;;;;;;4793548;29;20179;-91
2022/05/30 12:04:56;;;;;;;6.10;1.27;;;15.50;99.90;;;;;;4793111;30;20183;-90
2022/05/30 12:07:57;;;;;;;3.53;1.17;;;15.50;99.90;;;;;;4795456;29;20186;-90
2022/05/30 12:10:34;;;;;;;7.20;1.23;;;15.50;99.90;;;;;;4808058;29;20563;-90
2022/05/30 12:13:18;;;;;;;3.92;1.10;;;15.40;99.90;;;;;;4811501;29;20182;-91
2022/05/30 12:16:05;;;;;;;2.92;1.00;;;15.10;99.90;;;;;;4811614;29;20198;-91
2022/05/30 12:24:21;;;;;;;3.60;1.00;;;14.40;99.90;;;;;;4812833;29;20177;-90
2022/05/30 12:26:53;;;;;;;2.25;1.00;;;14.10;99.90;;;;;;4807869;29;20187;-91
2022/05/30 12:29:37;;;;;;;4.70;1.30;;;13.90;99.90;;;;;;4793651;30;20237;-91
2022/05/30 12:32:09;;;;;;;5.32;1.20;;;13.70;99.90;;;;;;4793161;29;20248;-91
2022/05/30 12:38:10;;;;;;;4.22;1.27;;;13.50;99.90;;;;;;4791630;30;20174;-91
2022/05/30 12:41:15;;;;;;;6.20;1.48;;;13.50;99.90;;;;;;4806503;29;20663;-91
2022/05/30 12:43:44;;;;;;;4.80;1.02;;;13.50;99.90;;;;;;4808722;29;20193;-92
2022/05/30 12:46:13;;;;;;;6.35;1.10;;;13.50;99.90;;;;;;4809368;29;20222;-90
2022/05/30 12:49:00;;;;;;;2.63;0.90;;;13.60;99.90;;;;;;4808432;29;20210;-91
2022/05/30 12:51:38;;;;;;;4.75;1.35;;;13.70;99.90;;;;;;4808286;29;20187;-90
2022/05/30 12:54:03;;;;;;;5.70;0.85;;;13.80;99.90;;;;;;4808294;29;20209;-91
2022/05/30 12:57:01;;;;;;;5.65;1.10;;;13.80;99.90;;;;;;4808075;29;20210;-90
2022/05/30 12:59:33;;;;;;;3.35;1.30;;;13.70;99.90;;;;;;4808255;29;20262;-91
2022/05/30 13:02:01;;;;;;;4.82;1.13;;;13.60;99.90;;;;;;4808295;29;20195;-91
2022/05/30 13:04:36;;;;;;;3.85;1.00;;;13.60;99.90;;;;;;4807804;29;20231;-90
2022/05/30 13:07:04;;;;;;;2.65;0.80;;;13.60;99.90;;;;;;4808009;29;20178;-90
2022/05/30 13:09:34;;;;;;;4.88;1.30;;;13.60;99.90;;;;;;4800095;29;20282;-90
2022/05/30 13:12:20;;;;;;;4.63;1.17;;;13.50;99.90;;;;;;4789869;30;20179;-90
2022/05/30 13:14:59;;;;;;;4.40;0.90;;;13.40;99.90;;;;;;4789828;30;20219;-92
2022/05/30 13:17:37;;;;;;;2.17;0.90;;;13.30;99.90;;;;;;4789909;30;20570;-91
2022/05/30 13:20:12;;;;;;;2.83;0.70;;;13.20;99.90;;;;;;4789548;29;20241;-92
2022/05/30 13:22:45;;;;;;;2.95;0.80;;;13.10;99.90;;;;;;4789855;30;20183;-90
2022/05/30 13:25:14;;;;;;;2.92;1.08;;;13.00;99.90;;;;;;4789454;30;20210;-90
2022/05/30 13:27:45;;;;;;;3.00;1.17;;;12.90;99.90;;;;;;4789649;30;20187;-91
2022/05/30 13:30:20;;;;;;;4.03;1.10;;;12.90;99.90;;;;;;4789813;30;20187;-91
2022/05/30 13:32:50;;;;;;;3.67;0.90;;;13.00;99.90;;;;;;4789528;30;20194;-91
2022/05/30 13:35:17;;;;;;;6.55;1.08;;;13.10;99.90;;;;;;4789513;30;20298;-91
2022/05/30 13:37:51;;;;;;;4.78;0.95;;;13.30;99.90;;;;;;4789385;30;20179;-92
2022/05/30 13:40:24;;;;;;;2.80;0.90;;;13.50;99.90;;;;;;4789374;29;20213;-91
2022/05/30 13:42:58;;;;;;;7.40;1.00;;;13.80;99.90;;;;;;4792368;29;20497;-91
2022/05/30 13:45:33;;;;;;;4.38;0.68;;;13.90;99.90;;;;;;4787429;29;20268;-90